sensor_id;sensor_type;location;lat;lon;timestamp;temperature;humidity
71837;DHT22;59686;51.716;7.016;2022-09-30T00:00:28;14.40;70.70
71837;DHT22;59686;51.716;7.016;2022-09-30T00:02:53;14.40;70.60
71837;DHT22;59686;51.716;7.016;2022-09-30T00:05:19;14.40;70.70
71837;DHT22;59686;51.716;7.016;2022-09-30T00:07:45;14.40;70.80
71837;DHT22;59686;51.716;7.016;2022-09-30T00:10:10;14.20;70.70
71837;DHT22;59686;51.716;7.016;2022-09-30T00:12:38;14.30;70.80
71837;DHT22;59686;51.716;7.016;2022-09-30T00:15:04;14.30;70.80
71837;DHT22;59686;51.716;7.016;2022-09-30T00:17:30;14.30;70.80
71837;DHT22;59686;51.716;7.016;2022-09-30T00:19:56;14.30;70.80
71837;DHT22;59686;51.716;7.016;2022-09-30T00:22:24;14.20;70.80
71837;DHT22;59686;51.716;7.016;2022-09-30T00:24:50;14.30;70.80
71837;DHT22;59686;51.716;7.016;2022-09-30T00:27:15;14.20;70.80
71837;DHT22;59686;51.716;7.016;2022-09-30T00:29:43;14.20;70.80
71837;DHT22;59686;51.716;7.016;2022-09-30T00:32:33;14.30;70.90
71837;DHT22;59686;51.716;7.016;2022-09-30T00:34:59;14.20;70.70
71837;DHT22;59686;51.716;7.016;2022-09-30T00:37:24;14.10;70.70
71837;DHT22;59686;51.716;7.016;2022-09-30T00:39:50;14.20;70.80
71837;DHT22;59686;51.716;7.016;2022-09-30T00:42:16;14.10;70.80
71837;DHT22;59686;51.716;7.016;2022-09-30T00:44:54;14.10;70.80
71837;DHT22;59686;51.716;7.016;2022-09-30T00:50:23;14.10;70.80
71837;DHT22;59686;51.716;7.016;2022-09-30T00:53:27;14.10;70.80
71837;DHT22;59686;51.716;7.016;2022-09-30T00:56:02;14.10;70.80
71837;DHT22;59686;51.716;7.016;2022-09-30T00:58:46;14.10;70.80
71837;DHT22;59686;51.716;7.016;2022-09-30T01:01:22;14.20;70.80
71837;DHT22;59686;51.716;7.016;2022-09-30T01:03:58;14.10;70.70
71837;DHT22;59686;51.716;7.016;2022-09-30T01:06:24;14.10;70.70
71837;DHT22;59686;51.716;7.016;2022-09-30T01:08:50;14.00;70.80
71837;DHT22;59686;51.716;7.016;2022-09-30T01:11:17;14.00;70.80
71837;DHT22;59686;51.716;7.016;2022-09-30T01:13:46;14.00;70.70
71837;DHT22;59686;51.716;7.016;2022-09-30T01:22:16;14.00;70.50
71837;DHT22;59686;51.716;7.016;2022-09-30T01:30:18;13.90;70.60
71837;DHT22;59686;51.716;7.016;2022-09-30T01:35:39;13.90;70.60
71837;DHT22;59686;51.716;7.016;2022-09-30T01:41:11;13.80;70.40
71837;DHT22;59686;51.716;7.016;2022-09-30T01:44:09;13.80;70.40
71837;DHT22;59686;51.716;7.016;2022-09-30T01:46:41;13.80;70.50
71837;DHT22;59686;51.716;7.016;2022-09-30T01:52:06;13.80;70.40
71837;DHT22;59686;51.716;7.016;2022-09-30T01:57:19;13.80;70.40
71837;DHT22;59686;51.716;7.016;2022-09-30T01:59:52;13.80;70.40
71837;DHT22;59686;51.716;7.016;2022-09-30T02:02:30;13.80;70.30
71837;DHT22;59686;51.716;7.016;2022-09-30T02:05:07;13.80;70.30
71837;DHT22;59686;51.716;7.016;2022-09-30T02:07:54;13.70;70.30
71837;DHT22;59686;51.716;7.016;2022-09-30T02:10:28;13.70;70.20
71837;DHT22;59686;51.716;7.016;2022-09-30T02:13:12;13.70;70.20
71837;DHT22;59686;51.716;7.016;2022-09-30T02:15:43;13.70;71.00
71837;DHT22;59686;51.716;7.016;2022-09-30T02:20:52;13.70;70.20
71837;DHT22;59686;51.716;7.016;2022-09-30T02:23:22;13.60;70.10
71837;DHT22;59686;51.716;7.016;2022-09-30T02:25:57;13.70;70.90
71837;DHT22;59686;51.716;7.016;2022-09-30T02:28:26;13.60;70.00
71837;DHT22;59686;51.716;7.016;2022-09-30T02:30:56;13.60;70.00
71837;DHT22;59686;51.716;7.016;2022-09-30T02:33:32;13.60;70.00
71837;DHT22;59686;51.716;7.016;2022-09-30T02:36:06;13.60;69.90
71837;DHT22;59686;51.716;7.016;2022-09-30T02:38:38;13.60;70.00
71837;DHT22;59686;51.716;7.016;2022-09-30T02:41:08;13.60;69.90
71837;DHT22;59686;51.716;7.016;2022-09-30T02:43:35;13.50;69.90
71837;DHT22;59686;51.716;7.016;2022-09-30T02:49:01;13.50;69.80
71837;DHT22;59686;51.716;7.016;2022-09-30T02:51:41;13.50;69.80
71837;DHT22;59686;51.716;7.016;2022-09-30T02:54:34;13.50;69.80
71837;DHT22;59686;51.716;7.016;2022-09-30T02:57:22;13.50;69.80
71837;DHT22;59686;51.716;7.016;2022-09-30T02:59:51;13.60;69.90
71837;DHT22;59686;51.716;7.016;2022-09-30T03:02:18;13.50;69.90
71837;DHT22;59686;51.716;7.016;2022-09-30T03:04:45;13.50;69.90
71837;DHT22;59686;51.716;7.016;2022-09-30T03:07:13;13.40;69.70
71837;DHT22;59686;51.716;7.016;2022-09-30T03:09:39;13.40;69.70
71837;DHT22;59686;51.716;7.016;2022-09-30T03:12:37;13.50;69.80
71837;DHT22;59686;51.716;7.016;2022-09-30T03:15:28;13.40;69.70
71837;DHT22;59686;51.716;7.016;2022-09-30T03:21:07;13.40;69.80
71837;DHT22;59686;51.716;7.016;2022-09-30T03:26:43;13.40;69.80
71837;DHT22;59686;51.716;7.016;2022-09-30T03:40:36;13.30;69.60
71837;DHT22;59686;51.716;7.016;2022-09-30T03:43:10;13.30;69.70
71837;DHT22;59686;51.716;7.016;2022-09-30T03:45:40;13.30;70.40
71837;DHT22;59686;51.716;7.016;2022-09-30T03:48:10;13.40;69.70
71837;DHT22;59686;51.716;7.016;2022-09-30T03:50:37;13.30;69.70
71837;DHT22;59686;51.716;7.016;2022-09-30T03:53:08;13.20;69.60
71837;DHT22;59686;51.716;7.016;2022-09-30T03:55:50;13.20;69.70
71837;DHT22;59686;51.716;7.016;2022-09-30T03:58:21;13.30;69.70
71837;DHT22;59686;51.716;7.016;2022-09-30T04:00:52;13.30;69.60
71837;DHT22;59686;51.716;7.016;2022-09-30T04:03:19;13.20;69.50
71837;DHT22;59686;51.716;7.016;2022-09-30T04:05:46;13.20;69.50
71837;DHT22;59686;51.716;7.016;2022-09-30T04:08:12;13.20;69.60
71837;DHT22;59686;51.716;7.016;2022-09-30T04:10:41;13.20;69.50
71837;DHT22;59686;51.716;7.016;2022-09-30T04:13:08;13.20;69.60
71837;DHT22;59686;51.716;7.016;2022-09-30T04:15:35;13.20;69.60
71837;DHT22;59686;51.716;7.016;2022-09-30T04:18:01;13.10;69.50
71837;DHT22;59686;51.716;7.016;2022-09-30T04:20:40;13.20;69.50
71837;DHT22;59686;51.716;7.016;2022-09-30T04:23:06;13.10;69.40
71837;DHT22;59686;51.716;7.016;2022-09-30T04:25:31;13.00;69.50
71837;DHT22;59686;51.716;7.016;2022-09-30T04:27:57;13.10;69.40
71837;DHT22;59686;51.716;7.016;2022-09-30T04:30:23;13.10;69.40
71837;DHT22;59686;51.716;7.016;2022-09-30T04:35:40;13.10;69.40
71837;DHT22;59686;51.716;7.016;2022-09-30T04:38:06;13.10;69.50
71837;DHT22;59686;51.716;7.016;2022-09-30T04:40:36;13.00;69.40
71837;DHT22;59686;51.716;7.016;2022-09-30T04:43:02;13.00;69.40
71837;DHT22;59686;51.716;7.016;2022-09-30T04:45:28;12.90;69.30
71837;DHT22;59686;51.716;7.016;2022-09-30T04:48:07;13.00;69.30
71837;DHT22;59686;51.716;7.016;2022-09-30T04:50:33;13.00;69.40
71837;DHT22;59686;51.716;7.016;2022-09-30T04:52:58;13.00;69.40
71837;DHT22;59686;51.716;7.016;2022-09-30T04:55:24;13.00;69.30
71837;DHT22;59686;51.716;7.016;2022-09-30T04:57:50;13.00;69.30
71837;DHT22;59686;51.716;7.016;2022-09-30T05:00:15;13.00;69.30
71837;DHT22;59686;51.716;7.016;2022-09-30T05:02:42;13.00;69.30
71837;DHT22;59686;51.716;7.016;2022-09-30T05:05:09;13.00;69.30
71837;DHT22;59686;51.716;7.016;2022-09-30T05:07:34;12.90;69.30
71837;DHT22;59686;51.716;7.016;2022-09-30T05:10:00;12.90;69.30
71837;DHT22;59686;51.716;7.016;2022-09-30T05:12:26;12.90;69.30
71837;DHT22;59686;51.716;7.016;2022-09-30T05:14:52;12.80;69.20
71837;DHT22;59686;51.716;7.016;2022-09-30T05:17:17;12.90;69.20
71837;DHT22;59686;51.716;7.016;2022-09-30T05:19:43;12.90;69.30
71837;DHT22;59686;51.716;7.016;2022-09-30T05:22:08;12.90;69.20
71837;DHT22;59686;51.716;7.016;2022-09-30T05:24:34;12.90;69.20
71837;DHT22;59686;51.716;7.016;2022-09-30T05:27:00;12.90;69.30
71837;DHT22;59686;51.716;7.016;2022-09-30T05:29:26;12.90;69.20
71837;DHT22;59686;51.716;7.016;2022-09-30T05:35:11;12.80;69.10
71837;DHT22;59686;51.716;7.016;2022-09-30T05:37:36;12.80;69.20
71837;DHT22;59686;51.716;7.016;2022-09-30T05:40:02;12.80;69.10
71837;DHT22;59686;51.716;7.016;2022-09-30T05:42:30;12.80;69.20
71837;DHT22;59686;51.716;7.016;2022-09-30T05:45:04;12.80;69.10
71837;DHT22;59686;51.716;7.016;2022-09-30T05:47:31;12.80;69.20
71837;DHT22;59686;51.716;7.016;2022-09-30T05:49:57;12.70;69.10
71837;DHT22;59686;51.716;7.016;2022-09-30T05:52:24;12.80;69.20
71837;DHT22;59686;51.716;7.016;2022-09-30T05:54:56;12.80;69.20
71837;DHT22;59686;51.716;7.016;2022-09-30T05:57:29;12.80;69.20
71837;DHT22;59686;51.716;7.016;2022-09-30T05:59:55;12.70;69.10
71837;DHT22;59686;51.716;7.016;2022-09-30T06:02:23;12.80;69.10
71837;DHT22;59686;51.716;7.016;2022-09-30T06:04:48;12.70;69.10
71837;DHT22;59686;51.716;7.016;2022-09-30T06:07:19;12.90;69.20
71837;DHT22;59686;51.716;7.016;2022-09-30T06:09:45;12.70;69.10
71837;DHT22;59686;51.716;7.016;2022-09-30T06:12:11;12.70;69.10
71837;DHT22;59686;51.716;7.016;2022-09-30T06:14:36;12.70;69.10
71837;DHT22;59686;51.716;7.016;2022-09-30T06:17:02;12.70;69.10
71837;DHT22;59686;51.716;7.016;2022-09-30T06:19:29;12.60;69.00
71837;DHT22;59686;51.716;7.016;2022-09-30T06:21:56;12.70;69.20
71837;DHT22;59686;51.716;7.016;2022-09-30T06:24:22;12.70;69.10
71837;DHT22;59686;51.716;7.016;2022-09-30T06:26:48;12.70;69.20
71837;DHT22;59686;51.716;7.016;2022-09-30T06:29:13;12.70;69.20
71837;DHT22;59686;51.716;7.016;2022-09-30T06:31:39;12.60;69.10
71837;DHT22;59686;51.716;7.016;2022-09-30T06:34:05;12.70;69.30
71837;DHT22;59686;51.716;7.016;2022-09-30T06:36:31;12.60;69.20
71837;DHT22;59686;51.716;7.016;2022-09-30T06:38:59;12.60;69.30
71837;DHT22;59686;51.716;7.016;2022-09-30T06:41:25;12.60;69.30
71837;DHT22;59686;51.716;7.016;2022-09-30T06:43:52;12.70;69.40
71837;DHT22;59686;51.716;7.016;2022-09-30T06:46:18;12.70;69.50
71837;DHT22;59686;51.716;7.016;2022-09-30T06:48:55;12.60;69.40
71837;DHT22;59686;51.716;7.016;2022-09-30T06:51:22;12.60;69.50
71837;DHT22;59686;51.716;7.016;2022-09-30T06:53:53;12.60;69.60
71837;DHT22;59686;51.716;7.016;2022-09-30T06:56:26;12.60;69.70
71837;DHT22;59686;51.716;7.016;2022-09-30T06:58:52;12.60;69.80
71837;DHT22;59686;51.716;7.016;2022-09-30T07:01:19;12.60;69.80
71837;DHT22;59686;51.716;7.016;2022-09-30T07:04:15;12.60;69.90
71837;DHT22;59686;51.716;7.016;2022-09-30T07:06:59;12.60;69.90
71837;DHT22;59686;51.716;7.016;2022-09-30T07:09:27;12.70;70.10
71837;DHT22;59686;51.716;7.016;2022-09-30T07:12:00;12.60;70.20
71837;DHT22;59686;51.716;7.016;2022-09-30T07:14:26;12.60;70.20
71837;DHT22;59686;51.716;7.016;2022-09-30T07:20:02;12.60;70.40
71837;DHT22;59686;51.716;7.016;2022-09-30T07:22:31;12.60;70.50
71837;DHT22;59686;51.716;7.016;2022-09-30T07:25:01;12.60;70.60
71837;DHT22;59686;51.716;7.016;2022-09-30T07:27:36;12.60;70.70
71837;DHT22;59686;51.716;7.016;2022-09-30T07:30:04;12.60;70.70
71837;DHT22;59686;51.716;7.016;2022-09-30T07:32:49;12.60;70.80
71837;DHT22;59686;51.716;7.016;2022-09-30T07:35:15;12.60;70.90
71837;DHT22;59686;51.716;7.016;2022-09-30T07:37:40;12.60;71.00
71837;DHT22;59686;51.716;7.016;2022-09-30T07:40:06;12.50;71.00
71837;DHT22;59686;51.716;7.016;2022-09-30T07:42:38;12.60;71.10
71837;DHT22;59686;51.716;7.016;2022-09-30T07:45:09;12.60;71.20
71837;DHT22;59686;51.716;7.016;2022-09-30T07:47:36;12.60;71.30
71837;DHT22;59686;51.716;7.016;2022-09-30T07:50:01;12.60;71.40
71837;DHT22;59686;51.716;7.016;2022-09-30T07:52:28;12.60;71.50
71837;DHT22;59686;51.716;7.016;2022-09-30T07:54:57;12.60;71.50
71837;DHT22;59686;51.716;7.016;2022-09-30T07:57:22;12.60;71.60
71837;DHT22;59686;51.716;7.016;2022-09-30T07:59:48;12.60;71.80
71837;DHT22;59686;51.716;7.016;2022-09-30T08:02:16;12.60;71.80
71837;DHT22;59686;51.716;7.016;2022-09-30T08:04:42;12.60;71.90
71837;DHT22;59686;51.716;7.016;2022-09-30T08:07:22;12.60;72.00
71837;DHT22;59686;51.716;7.016;2022-09-30T08:09:48;12.60;72.10
71837;DHT22;59686;51.716;7.016;2022-09-30T08:12:14;12.60;73.10
71837;DHT22;59686;51.716;7.016;2022-09-30T08:14:58;12.70;72.40
71837;DHT22;59686;51.716;7.016;2022-09-30T08:17:53;12.60;72.40
71837;DHT22;59686;51.716;7.016;2022-09-30T08:20:19;12.60;72.50
71837;DHT22;59686;51.716;7.016;2022-09-30T08:22:45;12.60;72.80
71837;DHT22;59686;51.716;7.016;2022-09-30T08:25:10;12.70;73.10
71837;DHT22;59686;51.716;7.016;2022-09-30T08:27:46;12.60;73.10
71837;DHT22;59686;51.716;7.016;2022-09-30T08:30:12;12.60;73.30
71837;DHT22;59686;51.716;7.016;2022-09-30T08:32:37;12.60;73.40
71837;DHT22;59686;51.716;7.016;2022-09-30T08:35:05;12.60;73.30
71837;DHT22;59686;51.716;7.016;2022-09-30T08:37:31;12.60;73.50
71837;DHT22;59686;51.716;7.016;2022-09-30T08:40:04;12.60;73.60
71837;DHT22;59686;51.716;7.016;2022-09-30T08:42:35;12.60;73.70
71837;DHT22;59686;51.716;7.016;2022-09-30T08:45:30;12.60;73.70
71837;DHT22;59686;51.716;7.016;2022-09-30T08:51:29;12.60;74.10
71837;DHT22;59686;51.716;7.016;2022-09-30T08:53:59;12.60;74.10
71837;DHT22;59686;51.716;7.016;2022-09-30T08:56:31;12.60;74.20
71837;DHT22;59686;51.716;7.016;2022-09-30T09:02:19;12.60;74.50
71837;DHT22;59686;51.716;7.016;2022-09-30T09:05:49;12.60;74.60
71837;DHT22;59686;51.716;7.016;2022-09-30T09:08:28;12.60;74.60
71837;DHT22;59686;51.716;7.016;2022-09-30T09:17:22;12.70;74.80
71837;DHT22;59686;51.716;7.016;2022-09-30T09:20:27;12.60;74.80
71837;DHT22;59686;51.716;7.016;2022-09-30T09:23:03;12.60;75.00
71837;DHT22;59686;51.716;7.016;2022-09-30T09:25:33;12.60;75.60
71837;DHT22;59686;51.716;7.016;2022-09-30T09:28:04;12.60;75.30
71837;DHT22;59686;51.716;7.016;2022-09-30T09:30:45;12.70;75.20
71837;DHT22;59686;51.716;7.016;2022-09-30T09:33:25;12.80;75.30
71837;DHT22;59686;51.716;7.016;2022-09-30T09:38:51;12.70;75.30
71837;DHT22;59686;51.716;7.016;2022-09-30T09:44:22;12.70;75.40
71837;DHT22;59686;51.716;7.016;2022-09-30T09:50:03;12.70;75.90
71837;DHT22;59686;51.716;7.016;2022-09-30T09:53:00;12.70;75.60
71837;DHT22;59686;51.716;7.016;2022-09-30T09:55:28;12.60;75.50
71837;DHT22;59686;51.716;7.016;2022-09-30T09:58:09;12.70;75.70
71837;DHT22;59686;51.716;7.016;2022-09-30T10:00:35;12.80;75.80
71837;DHT22;59686;51.716;7.016;2022-09-30T10:05:35;12.70;75.60
71837;DHT22;59686;51.716;7.016;2022-09-30T10:11:25;12.70;75.70
71837;DHT22;59686;51.716;7.016;2022-09-30T10:14:01;12.70;75.90
71837;DHT22;59686;51.716;7.016;2022-09-30T10:16:33;12.70;75.80
71837;DHT22;59686;51.716;7.016;2022-09-30T10:19:00;12.80;75.70
71837;DHT22;59686;51.716;7.016;2022-09-30T10:21:31;12.80;75.80
71837;DHT22;59686;51.716;7.016;2022-09-30T10:23:57;12.80;75.80
71837;DHT22;59686;51.716;7.016;2022-09-30T10:26:46;12.80;75.90
71837;DHT22;59686;51.716;7.016;2022-09-30T10:29:32;12.80;76.00
71837;DHT22;59686;51.716;7.016;2022-09-30T10:32:05;12.80;76.00
71837;DHT22;59686;51.716;7.016;2022-09-30T10:34:34;12.80;75.90
71837;DHT22;59686;51.716;7.016;2022-09-30T10:37:16;12.80;75.90
71837;DHT22;59686;51.716;7.016;2022-09-30T10:39:59;12.80;75.90
71837;DHT22;59686;51.716;7.016;2022-09-30T10:42:32;12.90;76.10
71837;DHT22;59686;51.716;7.016;2022-09-30T10:45:06;12.90;76.00
71837;DHT22;59686;51.716;7.016;2022-09-30T10:47:36;12.90;76.00
71837;DHT22;59686;51.716;7.016;2022-09-30T10:50:12;12.90;75.90
71837;DHT22;59686;51.716;7.016;2022-09-30T10:53:02;12.90;75.90
71837;DHT22;59686;51.716;7.016;2022-09-30T10:55:33;12.90;75.90
71837;DHT22;59686;51.716;7.016;2022-09-30T11:01:24;13.00;75.90
71837;DHT22;59686;51.716;7.016;2022-09-30T11:04:43;13.00;75.90
71837;DHT22;59686;51.716;7.016;2022-09-30T11:06:57;13.00;75.90
71837;DHT22;59686;51.716;7.016;2022-09-30T11:09:33;13.00;75.70
71837;DHT22;59686;51.716;7.016;2022-09-30T11:12:18;13.10;75.60
71837;DHT22;59686;51.716;7.016;2022-09-30T11:14:48;13.10;75.70
71837;DHT22;59686;51.716;7.016;2022-09-30T11:20:17;13.10;75.40
71837;DHT22;59686;51.716;7.016;2022-09-30T11:23:21;13.10;75.40
71837;DHT22;59686;51.716;7.016;2022-09-30T11:25:51;13.10;75.60
71837;DHT22;59686;51.716;7.016;2022-09-30T11:31:07;13.00;75.60
71837;DHT22;59686;51.716;7.016;2022-09-30T11:34:11;13.10;75.70
71837;DHT22;59686;51.716;7.016;2022-09-30T11:37:03;13.10;75.80
71837;DHT22;59686;51.716;7.016;2022-09-30T11:45:31;12.90;75.60
71837;DHT22;59686;51.716;7.016;2022-09-30T11:48:25;13.00;76.00
71837;DHT22;59686;51.716;7.016;2022-09-30T11:59:16;13.10;76.40
71837;DHT22;59686;51.716;7.016;2022-09-30T12:01:47;13.10;75.80
71837;DHT22;59686;51.716;7.016;2022-09-30T12:06:53;13.30;75.80
71837;DHT22;59686;51.716;7.016;2022-09-30T12:09:44;13.20;75.60
71837;DHT22;59686;51.716;7.016;2022-09-30T12:12:16;13.20;75.50
71837;DHT22;59686;51.716;7.016;2022-09-30T12:14:52;13.30;75.50
71837;DHT22;59686;51.716;7.016;2022-09-30T12:17:30;13.20;75.50
71837;DHT22;59686;51.716;7.016;2022-09-30T12:20:03;13.20;75.30
71837;DHT22;59686;51.716;7.016;2022-09-30T12:22:46;13.20;75.20
71837;DHT22;59686;51.716;7.016;2022-09-30T12:25:20;13.20;75.10
71837;DHT22;59686;51.716;7.016;2022-09-30T12:27:55;13.40;75.30
71837;DHT22;59686;51.716;7.016;2022-09-30T12:30:22;13.30;75.20
71837;DHT22;59686;51.716;7.016;2022-09-30T12:33:03;13.40;75.20
71837;DHT22;59686;51.716;7.016;2022-09-30T12:47:06;13.40;74.70
71837;DHT22;59686;51.716;7.016;2022-09-30T12:49:35;13.40;74.70
71837;DHT22;59686;51.716;7.016;2022-09-30T12:52:05;13.40;74.70
71837;DHT22;59686;51.716;7.016;2022-09-30T12:54:42;13.50;74.70
71837;DHT22;59686;51.716;7.016;2022-09-30T12:57:18;13.60;74.30
71837;DHT22;59686;51.716;7.016;2022-09-30T12:59:55;13.70;74.20
71837;DHT22;59686;51.716;7.016;2022-09-30T13:02:38;13.60;74.10
71837;DHT22;59686;51.716;7.016;2022-09-30T13:15:56;13.60;74.20
71837;DHT22;59686;51.716;7.016;2022-09-30T13:23:46;13.90;73.50
71837;DHT22;59686;51.716;7.016;2022-09-30T13:26:32;14.00;73.40
71837;DHT22;59686;51.716;7.016;2022-09-30T13:31:29;14.20;73.10
71837;DHT22;59686;51.716;7.016;2022-09-30T13:36:30;14.30;72.30
71837;DHT22;59686;51.716;7.016;2022-09-30T13:39:17;14.40;72.60
71837;DHT22;59686;51.716;7.016;2022-09-30T13:41:46;14.40;72.10
71837;DHT22;59686;51.716;7.016;2022-09-30T13:44:17;14.40;71.20
71837;DHT22;59686;51.716;7.016;2022-09-30T13:47:08;14.40;71.00
71837;DHT22;59686;51.716;7.016;2022-09-30T13:49:56;14.40;70.20
71837;DHT22;59686;51.716;7.016;2022-09-30T13:52:30;14.50;70.40
71837;DHT22;59686;51.716;7.016;2022-09-30T13:55:01;14.60;71.00
71837;DHT22;59686;51.716;7.016;2022-09-30T13:57:46;14.70;70.90
71837;DHT22;59686;51.716;7.016;2022-09-30T14:00:17;14.70;71.10
71837;DHT22;59686;51.716;7.016;2022-09-30T14:03:52;14.70;70.20
71837;DHT22;59686;51.716;7.016;2022-09-30T14:05:57;14.70;69.00
71837;DHT22;59686;51.716;7.016;2022-09-30T14:11:25;14.70;69.70
71837;DHT22;59686;51.716;7.016;2022-09-30T14:17:03;14.70;69.60
71837;DHT22;59686;51.716;7.016;2022-09-30T14:19:49;14.80;68.80
71837;DHT22;59686;51.716;7.016;2022-09-30T14:22:17;14.80;69.20
71837;DHT22;59686;51.716;7.016;2022-09-30T14:24:44;14.90;69.10
71837;DHT22;59686;51.716;7.016;2022-09-30T14:30:20;15.00;68.20
71837;DHT22;59686;51.716;7.016;2022-09-30T14:32:56;15.00;68.10
71837;DHT22;59686;51.716;7.016;2022-09-30T14:35:41;15.00;68.10
71837;DHT22;59686;51.716;7.016;2022-09-30T14:38:20;15.10;68.20
71837;DHT22;59686;51.716;7.016;2022-09-30T14:40:50;15.10;68.20
71837;DHT22;59686;51.716;7.016;2022-09-30T14:43:20;15.10;68.30
71837;DHT22;59686;51.716;7.016;2022-09-30T14:46:06;15.00;67.70
71837;DHT22;59686;51.716;7.016;2022-09-30T14:48:35;15.10;67.90
71837;DHT22;59686;51.716;7.016;2022-09-30T14:51:13;15.10;67.50
71837;DHT22;59686;51.716;7.016;2022-09-30T14:53:58;15.10;67.60
71837;DHT22;59686;51.716;7.016;2022-09-30T14:56:33;15.10;67.50
71837;DHT22;59686;51.716;7.016;2022-09-30T14:59:00;15.10;67.30
71837;DHT22;59686;51.716;7.016;2022-09-30T15:01:37;15.10;66.90
71837;DHT22;59686;51.716;7.016;2022-09-30T15:04:25;15.20;67.10
71837;DHT22;59686;51.716;7.016;2022-09-30T15:06:52;15.20;66.90
71837;DHT22;59686;51.716;7.016;2022-09-30T15:09:22;15.20;66.90
71837;DHT22;59686;51.716;7.016;2022-09-30T15:11:49;15.20;67.10
71837;DHT22;59686;51.716;7.016;2022-09-30T15:14:20;15.20;67.40
71837;DHT22;59686;51.716;7.016;2022-09-30T15:16:53;15.30;67.50
71837;DHT22;59686;51.716;7.016;2022-09-30T15:19:21;15.20;67.00
71837;DHT22;59686;51.716;7.016;2022-09-30T15:21:49;15.20;67.10
71837;DHT22;59686;51.716;7.016;2022-09-30T15:24:16;15.20;67.00
71837;DHT22;59686;51.716;7.016;2022-09-30T15:26:43;15.10;66.70
71837;DHT22;59686;51.716;7.016;2022-09-30T15:29:13;15.10;67.20
71837;DHT22;59686;51.716;7.016;2022-09-30T15:31:53;15.20;67.80
71837;DHT22;59686;51.716;7.016;2022-09-30T15:34:24;15.10;67.80
71837;DHT22;59686;51.716;7.016;2022-09-30T15:37:03;15.10;67.80
71837;DHT22;59686;51.716;7.016;2022-09-30T15:39:38;15.00;68.00
71837;DHT22;59686;51.716;7.016;2022-09-30T15:42:32;15.20;67.90
71837;DHT22;59686;51.716;7.016;2022-09-30T15:45:04;15.20;67.40
71837;DHT22;59686;51.716;7.016;2022-09-30T15:47:58;15.20;67.50
71837;DHT22;59686;51.716;7.016;2022-09-30T15:50:57;15.20;67.30
71837;DHT22;59686;51.716;7.016;2022-09-30T15:53:29;15.30;67.20
71837;DHT22;59686;51.716;7.016;2022-09-30T15:55:59;15.30;67.10
71837;DHT22;59686;51.716;7.016;2022-09-30T15:58:40;15.30;67.20
71837;DHT22;59686;51.716;7.016;2022-09-30T16:01:39;15.30;66.90
71837;DHT22;59686;51.716;7.016;2022-09-30T16:11:42;15.30;67.20
71837;DHT22;59686;51.716;7.016;2022-09-30T16:14:24;15.40;67.50
71837;DHT22;59686;51.716;7.016;2022-09-30T16:16:53;15.40;67.30
71837;DHT22;59686;51.716;7.016;2022-09-30T16:19:21;15.20;67.20
71837;DHT22;59686;51.716;7.016;2022-09-30T16:21:50;15.30;67.40
71837;DHT22;59686;51.716;7.016;2022-09-30T16:26:56;15.30;67.60
71837;DHT22;59686;51.716;7.016;2022-09-30T16:29:23;15.30;68.00
71837;DHT22;59686;51.716;7.016;2022-09-30T16:31:53;15.30;67.90
71837;DHT22;59686;51.716;7.016;2022-09-30T16:34:35;15.40;67.80
71837;DHT22;59686;51.716;7.016;2022-09-30T16:37:08;15.40;67.70
71837;DHT22;59686;51.716;7.016;2022-09-30T16:39:35;15.40;67.40
71837;DHT22;59686;51.716;7.016;2022-09-30T16:42:00;15.30;67.60
71837;DHT22;59686;51.716;7.016;2022-09-30T16:44:29;15.30;67.60
71837;DHT22;59686;51.716;7.016;2022-09-30T16:46:58;15.30;67.50
71837;DHT22;59686;51.716;7.016;2022-09-30T16:49:24;15.30;67.60
71837;DHT22;59686;51.716;7.016;2022-09-30T16:51:50;15.20;67.90
71837;DHT22;59686;51.716;7.016;2022-09-30T16:54:16;15.20;68.00
71837;DHT22;59686;51.716;7.016;2022-09-30T16:56:41;15.20;68.10
71837;DHT22;59686;51.716;7.016;2022-09-30T16:59:13;15.20;68.10
71837;DHT22;59686;51.716;7.016;2022-09-30T17:01:40;15.10;68.30
71837;DHT22;59686;51.716;7.016;2022-09-30T17:04:06;15.10;68.60
71837;DHT22;59686;51.716;7.016;2022-09-30T17:06:33;15.10;68.90
71837;DHT22;59686;51.716;7.016;2022-09-30T17:08:59;15.10;68.70
71837;DHT22;59686;51.716;7.016;2022-09-30T17:11:28;15.10;68.90
71837;DHT22;59686;51.716;7.016;2022-09-30T17:13:59;15.10;69.00
71837;DHT22;59686;51.716;7.016;2022-09-30T17:16:26;15.00;68.90
71837;DHT22;59686;51.716;7.016;2022-09-30T17:18:51;15.00;69.10
71837;DHT22;59686;51.716;7.016;2022-09-30T17:21:19;15.00;69.10
71837;DHT22;59686;51.716;7.016;2022-09-30T17:23:45;15.00;69.00
71837;DHT22;59686;51.716;7.016;2022-09-30T17:26:11;14.90;69.10
71837;DHT22;59686;51.716;7.016;2022-09-30T17:28:40;15.00;69.20
71837;DHT22;59686;51.716;7.016;2022-09-30T17:31:07;14.90;69.30
71837;DHT22;59686;51.716;7.016;2022-09-30T17:33:35;14.90;69.10
71837;DHT22;59686;51.716;7.016;2022-09-30T17:36:07;15.00;69.20
71837;DHT22;59686;51.716;7.016;2022-09-30T17:38:35;14.90;69.20
71837;DHT22;59686;51.716;7.016;2022-09-30T17:41:01;14.90;69.70
71837;DHT22;59686;51.716;7.016;2022-09-30T17:43:45;14.90;70.00
71837;DHT22;59686;51.716;7.016;2022-09-30T17:46:12;14.90;70.50
71837;DHT22;59686;51.716;7.016;2022-09-30T17:48:39;14.90;70.80
71837;DHT22;59686;51.716;7.016;2022-09-30T17:51:05;14.80;71.30
71837;DHT22;59686;51.716;7.016;2022-09-30T17:53:32;14.80;71.60
71837;DHT22;59686;51.716;7.016;2022-09-30T17:56:05;14.80;72.10
71837;DHT22;59686;51.716;7.016;2022-09-30T17:58:36;14.70;72.30
71837;DHT22;59686;51.716;7.016;2022-09-30T18:01:11;14.70;72.20
71837;DHT22;59686;51.716;7.016;2022-09-30T18:03:37;14.70;72.30
71837;DHT22;59686;51.716;7.016;2022-09-30T18:06:03;14.70;72.30
71837;DHT22;59686;51.716;7.016;2022-09-30T18:08:29;14.70;72.20
71837;DHT22;59686;51.716;7.016;2022-09-30T18:10:55;14.70;72.40
71837;DHT22;59686;51.716;7.016;2022-09-30T18:13:25;14.60;72.30
71837;DHT22;59686;51.716;7.016;2022-09-30T18:15:54;14.70;72.30
71837;DHT22;59686;51.716;7.016;2022-09-30T18:18:20;14.70;72.30
71837;DHT22;59686;51.716;7.016;2022-09-30T18:20:46;14.60;72.40
71837;DHT22;59686;51.716;7.016;2022-09-30T18:23:13;14.60;72.40
71837;DHT22;59686;51.716;7.016;2022-09-30T18:25:41;14.60;72.60
71837;DHT22;59686;51.716;7.016;2022-09-30T18:28:08;14.70;72.50
71837;DHT22;59686;51.716;7.016;2022-09-30T18:30:38;14.70;72.30
71837;DHT22;59686;51.716;7.016;2022-09-30T18:33:08;14.80;72.10
71837;DHT22;59686;51.716;7.016;2022-09-30T18:35:37;14.90;72.00
71837;DHT22;59686;51.716;7.016;2022-09-30T18:38:04;14.90;71.90
71837;DHT22;59686;51.716;7.016;2022-09-30T18:40:31;14.90;71.80
71837;DHT22;59686;51.716;7.016;2022-09-30T18:42:59;15.00;71.90
71837;DHT22;59686;51.716;7.016;2022-09-30T18:45:36;14.90;71.70